createdAt,value
2017-06-24T00:00:32.357Z,69.00
2017-06-24T00:02:59.890Z,68.70
2017-06-24T00:05:28.187Z,66.50
2017-06-24T00:07:55.756Z,66.40
2017-06-24T00:10:23.283Z,66.50
2017-06-24T00:12:51.576Z,69.80
2017-06-24T00:15:19.146Z,69.30
2017-06-24T00:17:46.679Z,69.20
2017-06-24T00:20:14.964Z,70.80
2017-06-24T00:22:43.298Z,70.10
2017-06-24T00:25:10.825Z,70.00
2017-06-24T00:27:38.344Z,70.90
2017-06-24T00:30:05.912Z,71.20
2017-06-24T00:32:34.211Z,70.60
2017-06-24T00:35:01.765Z,70.40
2017-06-24T00:37:30.097Z,70.80
2017-06-24T00:39:57.628Z,70.80
2017-06-24T00:42:25.163Z,71.00
2017-06-24T00:44:53.510Z,69.90
2017-06-24T00:47:21.040Z,69.90
2017-06-24T00:49:48.577Z,70.10
2017-06-24T00:52:16.153Z,70.60
2017-06-24T00:54:43.692Z,69.70
2017-06-24T00:57:11.220Z,68.70
2017-06-24T00:59:38.786Z,70.60
2017-06-24T01:02:06.308Z,69.60
2017-06-24T01:04:33.858Z,69.40
2017-06-24T01:07:01.445Z,71.80
2017-06-24T01:09:28.980Z,70.70
2017-06-24T01:11:56.512Z,70.60
2017-06-24T01:14:24.085Z,71.90
2017-06-24T01:16:51.811Z,71.80
2017-06-24T01:19:20.102Z,71.50
2017-06-24T01:21:48.433Z,72.10
2017-06-24T01:24:15.956Z,72.80
2017-06-24T01:26:43.508Z,70.50
2017-06-24T01:29:11.087Z,71.90
2017-06-24T01:31:38.614Z,71.00
2017-06-24T01:34:06.914Z,72.20
2017-06-24T01:36:34.485Z,72.10
2017-06-24T01:39:02.019Z,72.80
2017-06-24T01:41:29.611Z,72.80
2017-06-24T01:43:57.158Z,74.20
2017-06-24T01:46:24.689Z,74.10
2017-06-24T01:48:53.029Z,73.30
2017-06-24T01:51:20.670Z,73.10
2017-06-24T01:53:48.184Z,72.90
2017-06-24T01:56:15.748Z,71.60
2017-06-24T01:58:43.283Z,71.60
2017-06-24T02:01:10.831Z,71.90
2017-06-24T02:03:38.428Z,72.00
2017-06-24T02:06:05.954Z,72.70
2017-06-24T02:08:33.482Z,72.00
2017-06-24T02:11:01.074Z,74.70
2017-06-24T02:13:28.607Z,75.30
2017-06-24T02:15:56.133Z,74.10
2017-06-24T02:18:24.472Z,74.50
2017-06-24T02:20:52.015Z,74.20
2017-06-24T02:23:19.563Z,74.80
2017-06-24T02:25:47.136Z,75.00
2017-06-24T02:28:14.674Z,75.40
2017-06-24T02:30:42.191Z,73.40
2017-06-24T02:33:09.764Z,74.50
2017-06-24T02:35:37.296Z,73.50
2017-06-24T02:38:04.819Z,74.70
2017-06-24T02:40:32.400Z,74.30
2017-06-24T02:42:59.936Z,74.10
2017-06-24T02:45:27.463Z,74.40
2017-06-24T02:47:55.032Z,75.80
2017-06-24T02:50:22.575Z,76.00
2017-06-24T02:52:50.105Z,76.00
2017-06-24T02:55:17.674Z,76.80
2017-06-24T02:57:45.201Z,76.90
2017-06-24T03:00:12.769Z,75.60
2017-06-24T03:02:40.294Z,77.00
2017-06-24T03:05:08.595Z,77.20
2017-06-24T03:07:36.153Z,76.90
2017-06-24T03:10:03.679Z,75.50
2017-06-24T03:12:43.108Z,75.30
2017-06-24T03:15:10.644Z,77.40
2017-06-24T03:17:38.160Z,75.50
2017-06-24T03:20:06.491Z,74.20
2017-06-24T03:22:34.021Z,74.30
2017-06-24T03:25:01.543Z,73.40
2017-06-24T03:27:29.888Z,75.10
2017-06-24T03:29:57.413Z,75.00
2017-06-24T03:32:24.935Z,74.60
2017-06-24T03:34:52.519Z,75.70
2017-06-24T03:37:20.055Z,73.70
2017-06-24T03:39:47.603Z,77.00
2017-06-24T03:42:15.184Z,77.80
2017-06-24T03:44:42.701Z,74.00
2017-06-24T03:47:11.062Z,77.30
2017-06-24T03:49:38.641Z,76.60
2017-06-24T03:52:06.158Z,76.00
2017-06-24T03:54:33.681Z,76.10
2017-06-24T03:57:01.256Z,77.90
2017-06-24T03:59:29.552Z,77.30
2017-06-24T04:01:57.843Z,76.40
2017-06-24T04:04:25.532Z,76.50
2017-06-24T04:06:53.051Z,77.40
2017-06-24T04:09:21.350Z,76.70
2017-06-24T04:11:48.920Z,76.60
2017-06-24T04:14:16.439Z,75.10
2017-06-24T04:16:44.727Z,75.70
2017-06-24T04:19:13.059Z,75.40
2017-06-24T04:21:40.580Z,75.40
2017-06-24T04:24:08.132Z,75.60
2017-06-24T04:26:35.707Z,75.50
2017-06-24T04:29:03.248Z,76.70
2017-06-24T04:31:31.543Z,73.80
2017-06-24T04:34:00.743Z,73.60
2017-06-24T04:36:32.046Z,75.00
2017-06-24T04:39:02.314Z,74.40
2017-06-24T04:41:32.482Z,73.60
2017-06-24T04:44:04.017Z,74.30
2017-06-24T04:46:33.567Z,74.20
2017-06-24T04:49:06.769Z,72.00
2017-06-24T04:51:37.550Z,76.80
2017-06-24T04:54:07.878Z,76.00
2017-06-24T05:01:53.076Z,74.50
2017-06-24T05:04:20.644Z,73.50
2017-06-24T05:06:48.167Z,74.00
2017-06-24T05:09:15.713Z,73.50
2017-06-24T05:11:44.064Z,72.10
2017-06-24T05:14:11.590Z,72.00
2017-06-24T05:16:39.127Z,73.50
2017-06-24T05:19:06.700Z,71.50
2017-06-24T05:21:34.242Z,71.10
2017-06-24T05:24:02.537Z,70.60
2017-06-24T05:26:30.133Z,70.50
2017-06-24T05:28:57.651Z,70.70
2017-06-24T05:31:25.176Z,72.70
2017-06-24T05:33:52.740Z,73.00
2017-06-24T05:36:20.260Z,73.00
2017-06-24T05:38:47.779Z,72.50
2017-06-24T05:41:16.096Z,71.60
2017-06-24T05:43:43.807Z,71.60
2017-06-24T05:46:11.724Z,70.70
2017-06-24T05:48:39.342Z,69.40
2017-06-24T05:51:07.069Z,68.70
2017-06-24T05:53:35.605Z,67.70
2017-06-24T05:56:03.295Z,66.90
2017-06-24T05:58:30.996Z,67.90
2017-06-24T06:00:59.516Z,68.50
2017-06-24T06:03:27.129Z,68.40
2017-06-24T06:05:56.457Z,67.90
2017-06-24T06:08:24.256Z,68.90
2017-06-24T06:10:51.939Z,66.40
2017-06-24T06:13:19.591Z,66.30
2017-06-24T06:15:47.312Z,68.00
2017-06-24T06:18:15.704Z,68.50
2017-06-24T06:20:43.333Z,68.30
2017-06-24T06:23:11.086Z,66.70
2017-06-24T06:25:39.505Z,65.00
2017-06-24T06:28:07.164Z,64.80
2017-06-24T06:30:34.948Z,64.90
2017-06-24T06:33:02.525Z,64.00
2017-06-24T06:35:30.233Z,63.00
2017-06-24T06:37:58.697Z,64.70
2017-06-24T06:40:26.438Z,64.70
2017-06-24T06:42:54.112Z,64.50
2017-06-24T06:45:21.901Z,66.30
2017-06-24T06:47:49.734Z,66.30
2017-06-24T06:50:17.391Z,64.50
2017-06-24T06:52:45.094Z,63.40
2017-06-24T06:55:12.694Z,64.70
2017-06-24T06:57:40.647Z,64.60
2017-06-24T07:00:08.651Z,65.40
2017-06-24T07:02:36.345Z,64.90
2017-06-24T07:05:04.218Z,64.00
2017-06-24T07:07:33.044Z,62.80
2017-06-24T07:10:03.094Z,63.60
2017-06-24T07:12:32.536Z,63.40
2017-06-24T07:15:01.673Z,61.20
2017-06-24T07:17:30.861Z,61.20
2017-06-24T07:19:59.209Z,62.40
2017-06-24T07:22:27.385Z,61.40
2017-06-24T07:24:59.961Z,61.60
2017-06-24T07:27:34.545Z,60.90
2017-06-24T07:30:04.464Z,60.30
2017-06-24T07:32:32.354Z,59.50
2017-06-24T07:34:59.975Z,59.40
2017-06-24T07:37:37.514Z,60.70
2017-06-24T07:40:05.169Z,60.50
2017-06-24T07:42:32.717Z,59.40
2017-06-24T07:45:00.291Z,60.00
2017-06-24T07:47:27.808Z,61.00
2017-06-24T07:49:56.093Z,60.30
2017-06-24T07:52:24.424Z,59.70
2017-06-24T07:54:51.961Z,59.50
2017-06-24T07:57:19.486Z,60.80
2017-06-24T07:59:47.082Z,60.10
2017-06-24T08:02:14.616Z,59.80
2017-06-24T08:04:42.927Z,60.30
2017-06-24T08:07:10.500Z,60.30
2017-06-24T08:09:38.020Z,59.70
2017-06-24T08:12:05.581Z,60.40
2017-06-24T08:14:33.225Z,59.20
2017-06-24T08:17:00.883Z,59.00
2017-06-24T08:19:28.716Z,57.90
2017-06-24T08:21:57.448Z,59.00
2017-06-24T08:24:25.413Z,58.00
2017-06-24T08:26:53.162Z,57.90
2017-06-24T08:29:20.799Z,57.90
2017-06-24T08:31:48.443Z,57.70
2017-06-24T08:34:16.574Z,58.10
2017-06-24T08:36:44.574Z,57.50
2017-06-24T08:39:12.391Z,57.20
2017-06-24T08:41:40.199Z,57.20
2017-06-24T08:44:08.135Z,57.10
2017-06-24T08:46:36.087Z,56.70
2017-06-24T08:49:04.595Z,55.90
2017-06-24T08:51:33.043Z,54.40
2017-06-24T08:54:00.682Z,54.30
2017-06-24T08:56:28.313Z,54.10
2017-06-24T08:58:56.123Z,55.30
2017-06-24T09:01:23.645Z,55.60
2017-06-24T09:03:51.214Z,55.30
2017-06-24T09:06:18.748Z,55.50
2017-06-24T09:08:46.276Z,55.90
2017-06-24T09:11:14.037Z,56.60
2017-06-24T09:13:42.618Z,57.80
2017-06-24T09:16:12.678Z,57.30
2017-06-24T09:18:40.434Z,55.20
2017-06-24T09:21:09.803Z,56.60
2017-06-24T09:23:37.356Z,56.60
2017-06-24T09:26:14.181Z,54.90
2017-06-24T09:28:41.722Z,56.60
2017-06-24T09:31:09.241Z,54.40
2017-06-24T09:33:36.812Z,53.90
2017-06-24T09:36:04.533Z,53.50
2017-06-24T09:38:32.149Z,54.90
2017-06-24T09:40:59.741Z,54.90
2017-06-24T09:43:27.313Z,55.60
2017-06-24T09:45:54.864Z,56.40
2017-06-24T09:48:22.420Z,55.70
2017-06-24T09:50:51.549Z,56.20
2017-06-24T09:53:19.089Z,56.90
2017-06-24T09:55:47.532Z,56.00
2017-06-24T09:58:15.053Z,56.20
2017-06-24T10:00:42.576Z,57.30
2017-06-24T10:03:10.156Z,57.20
2017-06-24T10:05:38.435Z,56.40
2017-06-24T10:08:06.778Z,55.00
2017-06-24T10:10:34.310Z,54.90
2017-06-24T10:13:01.876Z,55.20
2017-06-24T10:15:29.443Z,53.90
2017-06-24T10:17:56.996Z,54.80
2017-06-24T10:20:24.519Z,55.00
2017-06-24T10:22:52.860Z,55.30
2017-06-24T10:25:20.384Z,55.30
2017-06-24T10:27:47.916Z,56.70
2017-06-24T10:30:16.293Z,57.20
2017-06-24T10:32:44.585Z,56.40
2017-06-24T10:35:12.130Z,56.30
2017-06-24T10:37:40.461Z,57.70
2017-06-24T10:40:07.977Z,57.50
2017-06-24T10:42:35.497Z,57.10
2017-06-24T10:45:03.065Z,57.20
2017-06-24T10:47:30.586Z,56.60
2017-06-24T10:49:58.124Z,57.60
2017-06-24T10:52:25.699Z,56.70
2017-06-24T10:54:53.220Z,57.50
2017-06-24T10:57:21.504Z,54.70
2017-06-24T10:59:49.837Z,55.40
2017-06-24T11:02:17.357Z,55.40
2017-06-24T11:04:44.896Z,53.60
2017-06-24T11:07:12.475Z,54.50
2017-06-24T11:09:40.000Z,52.60
2017-06-24T11:12:07.516Z,53.30
2017-06-24T11:14:35.124Z,54.50
2017-06-24T11:17:02.685Z,53.80
2017-06-24T11:19:30.208Z,52.40
2017-06-24T11:21:57.773Z,52.00
2017-06-24T11:24:25.307Z,53.40
2017-06-24T11:26:52.827Z,52.30
2017-06-24T11:29:20.384Z,52.40
2017-06-24T11:31:47.904Z,52.00
2017-06-24T11:34:15.423Z,50.60
2017-06-24T11:36:43.776Z,50.30
2017-06-24T11:39:11.299Z,50.20
2017-06-24T11:41:38.828Z,50.30
2017-06-24T11:44:06.411Z,50.30
2017-06-24T11:46:33.934Z,51.60
2017-06-24T11:49:02.216Z,50.70
2017-06-24T11:51:30.540Z,50.70
2017-06-24T11:53:58.060Z,50.60
2017-06-24T11:56:25.639Z,51.30
2017-06-24T11:58:53.159Z,49.50
2017-06-24T12:01:20.687Z,49.20
2017-06-24T12:03:48.288Z,48.90
2017-06-24T12:06:16.584Z,48.60
2017-06-24T12:08:44.876Z,49.10
2017-06-24T12:11:12.443Z,49.00
2017-06-24T12:13:39.969Z,50.40
2017-06-24T12:16:08.259Z,50.10
2017-06-24T12:18:36.599Z,50.30
2017-06-24T12:21:04.127Z,50.20
2017-06-24T12:23:31.652Z,51.20
2017-06-24T12:25:59.975Z,52.60
2017-06-24T12:28:27.499Z,52.60
2017-06-24T12:30:55.034Z,51.90
2017-06-24T12:33:22.609Z,52.30
2017-06-24T12:35:50.899Z,52.60
2017-06-24T12:38:18.419Z,52.50
2017-06-24T12:40:45.979Z,52.50
2017-06-24T12:43:13.512Z,51.50
2017-06-24T12:45:41.053Z,53.90
2017-06-24T12:48:08.627Z,50.90
2017-06-24T12:50:36.371Z,52.10
2017-06-24T12:53:03.998Z,51.90
2017-06-24T12:55:31.555Z,51.80
2017-06-24T12:57:59.072Z,52.40
2017-06-24T13:00:26.607Z,52.70
2017-06-24T13:02:54.192Z,52.60
2017-06-24T13:05:21.708Z,52.20
2017-06-24T13:07:49.228Z,53.30
2017-06-24T13:10:16.786Z,52.40
2017-06-24T13:12:44.299Z,53.00
2017-06-24T13:15:11.824Z,53.80
2017-06-24T13:17:39.387Z,53.60
2017-06-24T13:20:06.930Z,53.50
2017-06-24T13:22:34.460Z,54.00
2017-06-24T13:25:02.052Z,54.10
2017-06-24T13:27:29.579Z,54.70
2017-06-24T13:29:57.100Z,55.10
2017-06-24T13:32:25.475Z,54.10
2017-06-24T13:34:52.988Z,54.00
2017-06-24T13:37:20.512Z,55.10
2017-06-24T13:39:48.075Z,55.80
2017-06-24T13:42:16.361Z,54.60
2017-06-24T13:44:44.027Z,54.50
2017-06-24T13:47:11.581Z,54.50
2017-06-24T13:49:39.140Z,54.80
2017-06-24T13:52:06.667Z,54.70
2017-06-24T13:54:34.247Z,53.70
2017-06-24T13:57:02.533Z,54.10
2017-06-24T13:59:30.820Z,55.40
2017-06-24T14:01:58.390Z,55.30
2017-06-24T14:04:25.916Z,55.80
2017-06-24T14:06:54.457Z,55.20
2017-06-24T14:09:22.068Z,55.10
2017-06-24T14:11:50.355Z,55.90
2017-06-24T14:14:17.871Z,55.80
2017-06-24T14:16:45.431Z,56.10
2017-06-24T14:19:12.956Z,55.00
2017-06-24T14:21:40.485Z,54.60
2017-06-24T14:24:08.050Z,55.00
2017-06-24T14:26:35.576Z,55.20
2017-06-24T14:29:03.107Z,55.00
2017-06-24T14:31:30.674Z,55.30
2017-06-24T14:33:58.192Z,55.10
2017-06-24T14:36:26.480Z,54.60
2017-06-24T14:38:54.057Z,54.60
2017-06-24T14:41:21.609Z,54.20
2017-06-24T14:43:49.133Z,55.00
2017-06-24T14:46:17.467Z,55.40
2017-06-24T14:48:44.992Z,55.40
2017-06-24T14:51:13.272Z,55.50
2017-06-24T14:53:40.831Z,55.50
2017-06-24T14:56:08.347Z,55.50
2017-06-24T14:58:35.863Z,56.30
2017-06-24T15:01:03.427Z,54.60
2017-06-24T15:03:30.948Z,55.50
2017-06-24T15:05:58.463Z,56.20
2017-06-24T15:08:26.076Z,56.10
2017-06-24T15:10:54.373Z,55.40
2017-06-24T15:13:21.897Z,55.30
2017-06-24T15:15:49.461Z,54.60
2017-06-24T15:18:16.993Z,55.30
2017-06-24T15:20:45.316Z,53.80
2017-06-24T15:23:13.648Z,54.40
2017-06-24T15:25:41.169Z,54.30
2017-06-24T15:28:08.708Z,55.00
2017-06-24T15:30:37.334Z,55.50
2017-06-24T15:33:04.855Z,55.00
2017-06-24T15:35:32.376Z,55.40
2017-06-24T15:37:59.951Z,55.00
2017-06-24T15:40:27.472Z,54.70
2017-06-24T15:42:54.992Z,55.10
2017-06-24T15:45:22.593Z,54.20
2017-06-24T15:47:50.107Z,53.60
2017-06-24T15:50:18.404Z,54.00
2017-06-24T15:52:45.972Z,54.00
2017-06-24T15:55:13.502Z,54.20
2017-06-24T15:57:41.015Z,54.00
2017-06-24T16:00:08.571Z,54.20
2017-06-24T16:02:36.088Z,53.80
2017-06-24T16:05:04.368Z,54.50
2017-06-24T16:07:32.692Z,53.90
2017-06-24T16:10:00.208Z,53.80
2017-06-24T16:12:28.517Z,53.00
2017-06-24T16:14:56.106Z,52.90
2017-06-24T16:17:23.619Z,53.70
2017-06-24T16:19:51.134Z,54.40
2017-06-24T16:22:18.709Z,54.10
2017-06-24T16:24:46.232Z,54.30
2017-06-24T16:27:13.756Z,54.10
2017-06-24T16:29:41.360Z,54.80
2017-06-24T16:32:08.873Z,54.30
2017-06-24T16:34:37.152Z,54.60
2017-06-24T16:37:04.708Z,54.50
2017-06-24T16:39:32.998Z,55.10
2017-06-24T16:42:00.511Z,55.20
2017-06-24T16:44:28.063Z,54.70
2017-06-24T16:46:55.580Z,54.70
2017-06-24T16:49:23.108Z,54.80
2017-06-24T16:51:50.667Z,55.30
2017-06-24T16:54:18.180Z,54.80
2017-06-24T16:56:45.698Z,55.40
2017-06-24T16:59:14.036Z,56.00
2017-06-24T17:01:41.552Z,55.90
2017-06-24T17:04:09.075Z,56.20
2017-06-24T17:06:36.639Z,55.90
2017-06-24T17:09:04.152Z,55.20
2017-06-24T17:11:31.677Z,54.70
2017-06-24T17:14:00.009Z,55.90
2017-06-24T17:16:27.534Z,55.90
2017-06-24T17:18:55.052Z,55.40
2017-06-24T17:21:22.614Z,55.70
2017-06-24T17:23:50.136Z,56.00
2017-06-24T17:26:17.655Z,56.10
2017-06-24T17:28:45.980Z,55.60
2017-06-24T17:31:13.495Z,55.50
2017-06-24T17:33:41.772Z,56.00
2017-06-24T17:36:10.381Z,56.70
2017-06-24T17:38:37.897Z,56.60
2017-06-24T17:41:05.425Z,56.40
2017-06-24T17:43:33.004Z,56.80
2017-06-24T17:46:00.520Z,56.50
2017-06-24T17:48:28.049Z,55.40
2017-06-24T17:50:56.419Z,56.00
2017-06-24T17:53:24.715Z,56.30
2017-06-24T17:55:52.250Z,56.20
2017-06-24T17:58:19.820Z,56.60
2017-06-24T18:00:47.388Z,56.40
2017-06-24T18:03:14.915Z,56.50
2017-06-24T18:05:42.480Z,57.00
2017-06-24T18:08:09.995Z,56.70
2017-06-24T18:10:37.533Z,56.60
2017-06-24T18:13:05.878Z,57.80
2017-06-24T18:15:33.405Z,57.70
2017-06-24T18:18:00.936Z,58.80
2017-06-24T18:20:28.537Z,57.60
2017-06-24T18:22:56.088Z,57.10
2017-06-24T18:25:23.621Z,56.80
2017-06-24T18:27:51.199Z,58.00
2017-06-24T18:30:18.762Z,58.00
2017-06-24T18:32:46.335Z,58.20
2017-06-24T18:35:13.899Z,58.60
2017-06-24T18:37:41.941Z,58.50
2017-06-24T18:40:09.505Z,58.70
2017-06-24T18:42:37.104Z,57.90
2017-06-24T18:45:04.656Z,58.40
2017-06-24T18:47:32.171Z,58.40
2017-06-24T18:49:59.727Z,58.50
2017-06-24T18:52:28.011Z,58.70
2017-06-24T18:54:55.531Z,58.60
2017-06-24T18:57:23.099Z,58.90
2017-06-24T18:59:50.739Z,58.30
2017-06-24T19:02:18.256Z,58.50
2017-06-24T19:04:45.816Z,58.90
2017-06-24T19:07:13.338Z,58.90
2017-06-24T19:09:40.865Z,59.10
2017-06-24T19:12:08.437Z,59.50
2017-06-24T19:14:35.955Z,59.60
2017-06-24T19:17:03.476Z,59.90
2017-06-24T19:19:31.044Z,59.60
2017-06-24T19:21:58.557Z,59.80
2017-06-24T19:24:26.075Z,59.70
2017-06-24T19:26:53.643Z,59.80
2017-06-24T19:29:21.928Z,60.40
2017-06-24T19:31:49.452Z,60.30
2017-06-24T19:34:17.004Z,61.00
2017-06-24T19:36:44.529Z,61.90
2017-06-24T19:39:12.100Z,62.40
2017-06-24T19:41:39.612Z,62.30
2017-06-24T19:44:07.896Z,61.50
2017-06-24T19:46:36.256Z,61.30
2017-06-24T19:49:03.787Z,61.20
2017-06-24T19:51:31.312Z,60.70
2017-06-24T19:53:58.884Z,61.00
2017-06-24T19:56:26.410Z,60.50
2017-06-24T19:58:54.720Z,61.10
2017-06-24T20:01:22.283Z,61.00
2017-06-24T20:03:49.832Z,60.80
2017-06-24T20:06:17.357Z,60.40
2017-06-24T20:08:44.935Z,61.50
2017-06-24T20:11:13.224Z,61.10
2017-06-24T20:13:40.749Z,61.10
2017-06-24T20:16:08.308Z,61.30
2017-06-24T20:18:35.830Z,61.20
2017-06-24T20:21:03.352Z,61.30
2017-06-24T20:23:31.745Z,62.50
2017-06-24T20:26:00.046Z,62.40
2017-06-24T20:28:27.872Z,62.00
2017-06-24T20:30:56.168Z,62.40
2017-06-24T20:33:23.687Z,62.30
2017-06-24T20:35:51.283Z,62.40
2017-06-24T20:38:18.807Z,62.70
2017-06-24T20:40:46.335Z,62.50
2017-06-24T20:43:13.912Z,62.90
2017-06-24T20:45:41.475Z,63.10
2017-06-24T20:48:09.010Z,63.20
2017-06-24T20:50:36.587Z,63.20
2017-06-24T20:53:04.104Z,63.40
2017-06-24T20:55:31.632Z,64.40
2017-06-24T20:57:59.203Z,64.70
2017-06-24T21:00:27.492Z,66.10
2017-06-24T21:02:55.792Z,66.10
2017-06-24T21:05:23.388Z,65.90
2017-06-24T21:07:50.912Z,66.10
2017-06-24T21:10:18.439Z,66.70
2017-06-24T21:12:46.771Z,65.70
2017-06-24T21:15:14.319Z,65.20
2017-06-24T21:17:41.887Z,65.70
2017-06-24T21:20:09.486Z,66.20
2017-06-24T21:22:37.033Z,65.10
2017-06-24T21:25:04.566Z,65.90
2017-06-24T21:27:32.183Z,65.30
2017-06-24T21:30:00.486Z,66.10
2017-06-24T21:32:28.046Z,66.00
2017-06-24T21:34:55.772Z,66.40
2017-06-24T21:37:23.308Z,66.10
2017-06-24T21:39:50.834Z,65.70
2017-06-24T21:42:18.433Z,65.60
2017-06-24T21:44:46.032Z,65.00
2017-06-24T21:47:13.572Z,64.40
2017-06-24T21:49:41.959Z,66.10
2017-06-24T21:52:10.270Z,66.40
2017-06-24T21:54:37.825Z,66.20
2017-06-24T21:57:05.413Z,66.10
2017-06-24T21:59:32.952Z,66.50
2017-06-24T22:02:00.520Z,67.80
2017-06-24T22:04:28.101Z,68.00
2017-06-24T22:06:55.707Z,67.10
2017-06-24T22:09:24.054Z,69.20
2017-06-24T22:11:51.654Z,69.00
2017-06-24T22:14:19.974Z,69.90
2017-06-24T22:16:47.526Z,69.80
2017-06-24T22:19:15.122Z,70.10
2017-06-24T22:21:42.681Z,68.90
2017-06-24T22:24:10.216Z,69.30
2017-06-24T22:26:37.816Z,69.40
2017-06-24T22:29:05.373Z,69.40
2017-06-24T22:31:32.929Z,68.60
2017-06-24T22:34:00.625Z,69.00
2017-06-24T22:36:28.210Z,68.50
2017-06-24T22:38:55.790Z,69.70
2017-06-24T22:41:23.570Z,68.40
2017-06-24T22:43:51.126Z,69.90
2017-06-24T22:46:18.664Z,68.10
2017-06-24T22:48:46.267Z,70.20
2017-06-24T22:51:13.809Z,70.10
2017-06-24T22:53:41.355Z,69.60
2017-06-24T22:56:08.973Z,70.80
2017-06-24T22:58:36.524Z,70.60
2017-06-24T23:01:04.086Z,71.40
2017-06-24T23:03:31.673Z,71.80
2017-06-24T23:05:59.226Z,72.10
2017-06-24T23:08:26.769Z,71.90
2017-06-24T23:10:55.169Z,71.40
2017-06-24T23:13:22.747Z,71.30
2017-06-24T23:15:50.288Z,73.40
2017-06-24T23:18:17.895Z,72.60
2017-06-24T23:20:51.930Z,71.30
2017-06-24T23:23:19.572Z,72.50
2017-06-24T23:25:47.129Z,73.70
2017-06-24T23:28:14.691Z,73.00
2017-06-24T23:30:42.293Z,73.20
2017-06-24T23:33:10.622Z,74.10
2017-06-24T23:35:38.156Z,73.90
2017-06-24T23:38:05.764Z,74.50
2017-06-24T23:40:33.340Z,74.20
2017-06-24T23:43:01.654Z,74.60
2017-06-24T23:45:29.234Z,74.40
2017-06-24T23:47:57.102Z,74.70
2017-06-24T23:50:24.671Z,75.40
2017-06-24T23:52:52.278Z,76.10
2017-06-24T23:55:20.581Z,75.90
2017-06-24T23:57:48.133Z,75.80
